createdAt,value
2022-10-28T00:00:53.360Z,22.00
2022-10-28T00:03:21.334Z,22.10
2022-10-28T00:05:49.621Z,22.10
2022-10-28T00:08:17.520Z,22.10
2022-10-28T00:10:46.804Z,22.10
2022-10-28T00:13:14.623Z,22.20
2022-10-28T00:15:42.497Z,22.00
2022-10-28T00:18:11.239Z,21.60
2022-10-28T00:20:39.057Z,21.80
2022-10-28T00:23:06.918Z,21.90
2022-10-28T00:25:34.755Z,21.90
2022-10-28T00:28:05.231Z,22.00
2022-10-28T00:30:33.065Z,22.00
2022-10-28T00:33:00.941Z,21.90
2022-10-28T00:35:29.827Z,21.80
2022-10-28T00:37:57.733Z,21.60
2022-10-28T00:40:25.588Z,21.80
2022-10-28T00:42:53.698Z,21.80
2022-10-28T00:45:23.612Z,21.90
2022-10-28T00:47:55.975Z,21.90
2022-10-28T00:50:45.437Z,21.90
2022-10-28T00:53:17.962Z,22.00
2022-10-28T00:55:47.549Z,22.00
2022-10-28T00:58:17.202Z,21.90
2022-10-28T01:00:46.342Z,21.80
2022-10-28T01:03:14.200Z,21.70
2022-10-28T01:05:43.955Z,21.80
2022-10-28T01:08:12.534Z,21.60
2022-10-28T01:11:03.877Z,21.40
2022-10-28T01:13:45.077Z,21.50
2022-10-28T01:16:27.211Z,21.30
2022-10-28T01:19:05.426Z,21.30
2022-10-28T01:21:51.688Z,21.40
2022-10-28T01:24:31.402Z,21.50
2022-10-28T01:27:29.023Z,21.60
2022-10-28T01:30:08.663Z,21.70
2022-10-28T01:32:46.288Z,21.70
2022-10-28T01:35:21.016Z,21.70
2022-10-28T01:37:57.095Z,21.70
2022-10-28T01:40:33.127Z,21.90
2022-10-28T01:43:08.453Z,22.00
2022-10-28T01:45:43.546Z,21.80
2022-10-28T01:48:16.987Z,21.70
2022-10-28T01:50:49.577Z,21.60
2022-10-28T01:53:23.930Z,21.50
2022-10-28T01:55:55.077Z,21.70
2022-10-28T01:58:27.597Z,21.80
2022-10-28T02:00:56.850Z,21.60
2022-10-28T02:03:26.718Z,21.50
2022-10-28T02:05:57.573Z,21.70
2022-10-28T02:08:58.680Z,21.90
2022-10-28T02:11:46.768Z,21.80
2022-10-28T02:14:31.502Z,21.60
2022-10-28T02:17:06.321Z,21.50
2022-10-28T02:19:44.444Z,21.60
2022-10-28T02:22:20.713Z,21.60
2022-10-28T02:24:56.448Z,21.40
2022-10-28T02:27:33.797Z,21.50
2022-10-28T02:30:06.161Z,21.40
2022-10-28T02:32:39.659Z,21.40
2022-10-28T02:35:14.322Z,21.40
2022-10-28T02:37:44.322Z,21.40
2022-10-28T02:40:16.986Z,21.50
2022-10-28T02:42:49.705Z,21.60
2022-10-28T02:45:20.232Z,21.50
2022-10-28T02:47:52.796Z,21.80
2022-10-28T02:50:27.684Z,21.90
2022-10-28T02:52:59.542Z,21.80
2022-10-28T02:55:34.882Z,21.80
2022-10-28T02:58:02.797Z,21.70
2022-10-28T03:00:30.614Z,21.70
2022-10-28T03:02:58.482Z,21.80
2022-10-28T03:05:28.762Z,21.90
2022-10-28T03:07:56.730Z,22.00
2022-10-28T03:10:24.756Z,21.90
2022-10-28T03:12:52.595Z,22.00
2022-10-28T03:15:20.502Z,22.20
2022-10-28T03:17:48.382Z,22.20
2022-10-28T03:20:16.352Z,22.20
2022-10-28T03:22:45.690Z,22.10
2022-10-28T03:25:13.519Z,22.20
2022-10-28T03:27:42.156Z,22.20
2022-10-28T03:30:10.926Z,22.10
2022-10-28T03:32:38.739Z,22.00
2022-10-28T03:35:07.980Z,22.00
2022-10-28T03:37:35.797Z,22.10
2022-10-28T03:40:07.873Z,22.20
2022-10-28T03:42:38.829Z,22.50
2022-10-28T03:45:08.777Z,22.40
2022-10-28T03:47:36.980Z,22.20
2022-10-28T03:50:05.079Z,22.20
2022-10-28T03:52:32.909Z,22.30
2022-10-28T03:55:00.787Z,22.40
2022-10-28T03:57:33.106Z,22.40
2022-10-28T04:00:00.936Z,22.50
2022-10-28T04:02:28.959Z,22.20
2022-10-28T04:04:56.808Z,22.20
2022-10-28T04:07:24.784Z,22.10
2022-10-28T04:09:52.670Z,22.00
2022-10-28T04:12:20.503Z,22.00
2022-10-28T04:14:49.746Z,22.20
2022-10-28T04:17:17.587Z,22.60
2022-10-28T04:19:45.494Z,22.60
2022-10-28T04:22:13.380Z,22.80
2022-10-28T04:24:41.210Z,22.80
2022-10-28T04:27:09.057Z,23.00
2022-10-28T04:29:37.104Z,23.20
2022-10-28T04:32:06.904Z,23.10
2022-10-28T04:34:34.809Z,23.10
2022-10-28T04:37:02.603Z,23.10
2022-10-28T04:39:30.431Z,23.00
2022-10-28T04:41:58.245Z,23.10
2022-10-28T04:44:26.074Z,23.20
2022-10-28T04:46:53.899Z,23.10
2022-10-28T04:49:23.057Z,23.10
2022-10-28T04:51:50.890Z,23.20
2022-10-28T04:54:18.791Z,23.40
2022-10-28T04:56:46.630Z,23.40
2022-10-28T04:59:14.711Z,23.20
2022-10-28T05:01:42.607Z,23.10
2022-10-28T05:04:10.619Z,23.20
2022-10-28T05:06:39.895Z,23.20
2022-10-28T05:09:07.708Z,23.10
2022-10-28T05:11:35.491Z,23.10
2022-10-28T05:14:03.392Z,23.10
2022-10-28T05:16:31.296Z,23.10
2022-10-28T05:18:59.317Z,23.20
2022-10-28T05:21:27.097Z,23.20
2022-10-28T05:23:56.367Z,23.50
2022-10-28T05:26:24.169Z,23.60
2022-10-28T05:28:52.140Z,23.60
2022-10-28T05:31:20.181Z,23.60
2022-10-28T05:33:48.056Z,23.70
2022-10-28T05:36:16.022Z,23.70
2022-10-28T05:38:45.460Z,23.70
2022-10-28T05:41:14.700Z,23.80
2022-10-28T05:43:42.646Z,23.90
2022-10-28T05:46:10.988Z,23.80
2022-10-28T05:48:38.851Z,23.80
2022-10-28T05:51:06.962Z,24.00
2022-10-28T05:53:34.914Z,23.90
2022-10-28T05:56:03.892Z,23.70
2022-10-28T05:58:33.088Z,23.80
2022-10-28T06:01:00.923Z,23.70
2022-10-28T06:03:31.148Z,23.40
2022-10-28T06:05:59.811Z,23.30
2022-10-28T06:08:27.814Z,23.30
2022-10-28T06:10:54.700Z,23.20
2022-10-28T06:13:23.285Z,22.90
2022-10-28T06:15:53.234Z,22.90
2022-10-28T06:18:21.895Z,22.90
2022-10-28T06:20:54.308Z,22.90
2022-10-28T06:23:22.697Z,23.10
2022-10-28T06:25:50.991Z,23.20
2022-10-28T06:28:18.830Z,23.10
2022-10-28T06:30:46.708Z,23.10
2022-10-28T06:33:15.881Z,23.40
2022-10-28T06:35:44.040Z,23.30
2022-10-28T06:38:12.105Z,23.20
2022-10-28T06:40:40.018Z,23.20
2022-10-28T06:43:13.076Z,23.30
2022-10-28T06:45:40.960Z,23.30
2022-10-28T06:48:11.613Z,23.10
2022-10-28T06:50:40.939Z,23.10
2022-10-28T06:53:09.803Z,23.20
2022-10-28T06:55:37.725Z,23.30
2022-10-28T06:58:05.625Z,23.30
2022-10-28T07:00:34.732Z,23.40
2022-10-28T07:03:02.637Z,23.70
2022-10-28T07:05:30.691Z,23.90
2022-10-28T07:07:59.854Z,24.10
2022-10-28T07:10:27.705Z,24.20
2022-10-28T07:12:55.943Z,24.40
2022-10-28T07:15:24.182Z,24.50
2022-10-28T07:17:55.629Z,24.20
2022-10-28T07:20:24.681Z,24.30
2022-10-28T07:22:57.094Z,23.90
2022-10-28T07:25:26.499Z,23.80
2022-10-28T07:27:54.730Z,23.80
2022-10-28T07:30:22.692Z,23.80
2022-10-28T07:32:50.851Z,23.80
2022-10-28T07:35:19.227Z,24.10
2022-10-28T07:37:47.418Z,24.30
2022-10-28T07:40:15.501Z,24.50
2022-10-28T07:42:44.694Z,24.70
2022-10-28T07:45:12.626Z,24.80
2022-10-28T07:47:40.698Z,25.00
2022-10-28T07:50:10.182Z,24.90
2022-10-28T07:52:38.360Z,25.00
2022-10-28T07:55:07.731Z,25.10
2022-10-28T07:57:36.242Z,25.20
2022-10-28T08:00:07.611Z,25.10
2022-10-28T08:02:35.492Z,24.90
2022-10-28T08:05:03.347Z,25.20
2022-10-28T08:07:34.778Z,25.40
2022-10-28T08:10:06.396Z,25.30
2022-10-28T08:12:34.204Z,25.30
2022-10-28T08:15:02.673Z,25.30
2022-10-28T08:17:32.147Z,25.30
2022-10-28T08:19:59.971Z,25.20
2022-10-28T08:22:27.890Z,25.20
2022-10-28T08:24:58.872Z,25.30
2022-10-28T08:27:27.039Z,25.30
2022-10-28T08:29:54.985Z,25.30
2022-10-28T08:32:22.777Z,25.10
2022-10-28T08:34:53.009Z,24.90
2022-10-28T08:37:20.897Z,25.00
2022-10-28T08:39:48.769Z,24.90
2022-10-28T08:42:29.810Z,25.00
2022-10-28T08:45:18.461Z,25.10
2022-10-28T08:47:55.102Z,25.20
2022-10-28T08:50:27.675Z,25.30
2022-10-28T08:52:58.953Z,25.40
2022-10-28T08:55:31.785Z,25.60
2022-10-28T08:58:03.662Z,25.80
2022-10-28T09:00:33.469Z,25.80
2022-10-28T09:03:23.192Z,25.80
2022-10-28T09:05:59.360Z,25.80
2022-10-28T09:08:29.217Z,25.90
2022-10-28T09:11:26.254Z,26.10
2022-10-28T09:14:12.126Z,26.10
2022-10-28T09:16:47.674Z,26.10
2022-10-28T09:19:24.410Z,26.00
2022-10-28T09:22:07.626Z,26.10
2022-10-28T09:24:44.610Z,26.00
2022-10-28T09:27:20.633Z,26.10
2022-10-28T09:29:58.232Z,26.20
2022-10-28T09:32:35.512Z,26.10
2022-10-28T09:35:06.852Z,26.10
2022-10-28T09:37:38.923Z,26.10
2022-10-28T09:40:15.876Z,26.00
2022-10-28T09:42:50.312Z,25.90
2022-10-28T09:45:22.617Z,25.70
2022-10-28T09:47:56.823Z,25.80
2022-10-28T09:50:29.340Z,25.90
2022-10-28T09:53:03.968Z,26.10
2022-10-28T09:55:32.903Z,26.20
2022-10-28T09:58:00.821Z,26.10
2022-10-28T10:00:28.649Z,26.20
2022-10-28T10:02:58.628Z,26.30
2022-10-28T10:05:27.505Z,26.30
2022-10-28T10:08:00.290Z,26.40
2022-10-28T10:10:33.383Z,26.60
2022-10-28T10:13:04.815Z,26.60
2022-10-28T10:15:43.566Z,26.50
2022-10-28T10:18:18.231Z,26.50
2022-10-28T10:20:51.335Z,26.50
2022-10-28T10:23:30.359Z,26.40
2022-10-28T10:26:00.817Z,26.40
2022-10-28T10:28:29.804Z,26.40
2022-10-28T10:30:59.703Z,26.50
2022-10-28T10:33:30.388Z,26.50
2022-10-28T10:36:01.743Z,26.50
2022-10-28T10:38:32.600Z,26.60
2022-10-28T10:41:00.510Z,26.70
2022-10-28T10:43:32.695Z,26.70
2022-10-28T10:46:03.084Z,26.70
2022-10-28T10:48:32.311Z,26.60
2022-10-28T10:51:05.521Z,26.60
2022-10-28T10:53:36.281Z,26.70
2022-10-28T10:56:05.710Z,26.70
2022-10-28T10:58:36.051Z,26.90
2022-10-28T11:01:07.279Z,27.00
2022-10-28T11:03:38.856Z,27.10
2022-10-28T11:06:23.039Z,27.00
2022-10-28T11:08:57.466Z,26.80
2022-10-28T11:11:33.965Z,26.80
2022-10-28T11:14:08.482Z,26.90
2022-10-28T11:16:49.291Z,26.70
2022-10-28T11:19:22.034Z,26.70
2022-10-28T11:22:11.019Z,26.80
2022-10-28T11:25:09.855Z,26.60
2022-10-28T11:27:55.331Z,27.00
2022-10-28T11:30:33.400Z,27.00
2022-10-28T11:33:28.846Z,26.80
2022-10-28T11:36:03.937Z,26.40
2022-10-28T11:38:45.889Z,26.40
2022-10-28T11:41:32.580Z,26.50
2022-10-28T11:44:05.319Z,26.50
2022-10-28T11:46:42.981Z,26.40
2022-10-28T11:49:38.821Z,26.50
2022-10-28T11:52:20.166Z,26.70
2022-10-28T11:54:58.710Z,26.70
2022-10-28T11:57:39.807Z,26.90
2022-10-28T12:00:26.091Z,27.00
2022-10-28T12:03:06.363Z,27.20
2022-10-28T12:05:41.516Z,27.00
2022-10-28T12:08:34.126Z,27.00
2022-10-28T12:11:12.190Z,27.10
2022-10-28T12:13:51.411Z,27.30
2022-10-28T12:16:26.312Z,27.30
2022-10-28T12:18:58.969Z,27.20
2022-10-28T12:21:32.537Z,27.30
2022-10-28T12:24:01.279Z,27.60
2022-10-28T12:26:37.969Z,27.50
2022-10-28T12:29:14.654Z,27.50
2022-10-28T12:31:46.371Z,27.70
2022-10-28T12:34:17.774Z,27.60
2022-10-28T12:36:50.449Z,27.30
2022-10-28T12:39:21.616Z,27.40
2022-10-28T12:41:56.794Z,27.30
2022-10-28T12:44:28.156Z,27.30
2022-10-28T12:47:15.169Z,27.10
2022-10-28T12:49:58.313Z,27.00
2022-10-28T12:52:36.947Z,27.10
2022-10-28T12:55:20.182Z,27.00
2022-10-28T12:57:52.919Z,27.10
2022-10-28T13:00:26.736Z,27.20
2022-10-28T13:03:00.620Z,27.30
2022-10-28T13:05:35.525Z,27.30
2022-10-28T13:08:35.002Z,27.30
2022-10-28T13:11:31.287Z,27.10
2022-10-28T13:14:02.873Z,27.00
2022-10-28T13:16:46.377Z,26.90
2022-10-28T13:19:41.770Z,27.10
2022-10-28T13:22:23.489Z,27.10
2022-10-28T13:24:58.800Z,27.10
2022-10-28T13:27:27.139Z,27.40
2022-10-28T13:29:58.524Z,27.20
2022-10-28T13:32:37.443Z,27.30
2022-10-28T13:35:16.068Z,27.30
2022-10-28T13:37:48.450Z,27.20
2022-10-28T13:40:43.452Z,27.30
2022-10-28T13:43:20.305Z,27.20
2022-10-28T13:45:51.407Z,27.40
2022-10-28T13:48:49.218Z,27.30
2022-10-28T13:51:46.296Z,27.30
2022-10-28T13:54:29.226Z,27.40
2022-10-28T13:57:04.087Z,27.30
2022-10-28T13:59:50.037Z,27.10
2022-10-28T14:02:36.150Z,27.20
2022-10-28T14:05:08.287Z,27.30
2022-10-28T14:07:38.061Z,27.20
2022-10-28T14:10:21.909Z,27.20
2022-10-28T14:12:53.811Z,27.10
2022-10-28T14:15:27.957Z,27.00
2022-10-28T14:18:09.936Z,26.80
2022-10-28T14:20:58.755Z,26.60
2022-10-28T14:24:03.969Z,26.70
2022-10-28T14:26:31.779Z,26.50
2022-10-28T14:28:59.726Z,26.60
2022-10-28T14:31:44.813Z,26.70
2022-10-28T14:34:40.394Z,26.70
2022-10-28T14:37:36.327Z,26.80
2022-10-28T14:40:34.272Z,26.60
2022-10-28T14:43:29.510Z,26.60
2022-10-28T14:46:09.346Z,26.60
2022-10-28T14:48:50.385Z,26.50
2022-10-28T14:51:21.085Z,26.50
2022-10-28T14:53:54.810Z,26.30
2022-10-28T14:56:25.636Z,26.20
2022-10-28T14:59:05.123Z,26.00
2022-10-28T15:01:48.283Z,26.00
2022-10-28T15:04:16.333Z,25.90
2022-10-28T15:06:48.028Z,25.90
2022-10-28T15:09:22.721Z,26.00
2022-10-28T15:11:55.743Z,26.00
2022-10-28T15:14:29.453Z,26.20
2022-10-28T15:16:57.629Z,26.00
2022-10-28T15:19:27.743Z,26.00
2022-10-28T15:22:07.983Z,25.90
2022-10-28T15:24:37.190Z,25.90
2022-10-28T15:27:05.233Z,25.90
2022-10-28T15:29:33.610Z,25.70
2022-10-28T15:32:06.783Z,25.80
2022-10-28T15:34:34.691Z,25.80
2022-10-28T15:37:02.811Z,25.80
2022-10-28T15:39:30.730Z,25.90
2022-10-28T15:42:01.151Z,25.50
2022-10-28T15:44:33.214Z,25.40
2022-10-28T15:47:16.654Z,25.60
2022-10-28T15:49:45.405Z,25.30
2022-10-28T15:52:32.999Z,25.20
2022-10-28T15:55:02.241Z,25.20
2022-10-28T15:57:46.884Z,25.30
2022-10-28T16:00:23.885Z,25.30
2022-10-28T16:02:57.275Z,25.30
2022-10-28T16:05:56.973Z,25.30
2022-10-28T16:08:27.629Z,25.40
2022-10-28T16:10:58.499Z,25.40
2022-10-28T16:13:30.985Z,25.30
2022-10-28T16:16:05.004Z,25.10
2022-10-28T16:18:35.687Z,25.10
2022-10-28T16:21:06.361Z,25.10
2022-10-28T16:23:39.020Z,25.10
2022-10-28T16:26:07.386Z,25.30
2022-10-28T16:28:38.020Z,25.20
2022-10-28T16:31:06.808Z,25.30
2022-10-28T16:33:38.020Z,25.20
2022-10-28T16:36:06.172Z,25.10
2022-10-28T16:38:34.282Z,25.00
2022-10-28T16:41:03.401Z,25.00
2022-10-28T16:43:31.998Z,24.80
2022-10-28T16:46:01.849Z,24.90
2022-10-28T16:48:31.039Z,25.00
2022-10-28T16:51:01.381Z,25.10
2022-10-28T16:53:29.296Z,25.10
2022-10-28T16:55:59.046Z,25.20
2022-10-28T16:58:27.549Z,25.10
2022-10-28T17:00:55.886Z,25.10
2022-10-28T17:03:25.009Z,25.10
2022-10-28T17:05:53.179Z,24.80
2022-10-28T17:08:42.285Z,24.70
2022-10-28T17:11:09.826Z,24.70
2022-10-28T17:13:37.599Z,24.50
2022-10-28T17:16:05.791Z,24.80
2022-10-28T17:18:34.957Z,25.00
2022-10-28T17:21:03.516Z,25.00
2022-10-28T17:23:31.410Z,24.90
2022-10-28T17:25:59.272Z,24.90
2022-10-28T17:28:27.256Z,25.00
2022-10-28T17:30:55.367Z,25.00
2022-10-28T17:33:23.147Z,25.00
2022-10-28T17:35:52.339Z,25.00
2022-10-28T17:38:20.108Z,25.00
2022-10-28T17:40:54.945Z,25.00
2022-10-28T17:43:22.969Z,25.00
2022-10-28T17:45:51.111Z,24.80
2022-10-28T17:48:19.137Z,24.70
2022-10-28T17:50:55.873Z,24.60
2022-10-28T17:53:23.665Z,24.50
2022-10-28T17:55:57.001Z,24.40
2022-10-28T17:58:25.118Z,24.50
2022-10-28T18:00:58.082Z,24.50
2022-10-28T18:03:26.349Z,24.40
2022-10-28T18:05:55.748Z,24.30
2022-10-28T18:08:24.207Z,24.30
2022-10-28T18:10:53.057Z,24.40
2022-10-28T18:13:26.432Z,24.50
2022-10-28T18:15:54.251Z,24.50
2022-10-28T18:18:22.022Z,24.30
2022-10-28T18:20:53.962Z,24.30
2022-10-28T18:23:23.406Z,24.30
2022-10-28T18:25:58.687Z,24.40
2022-10-28T18:28:26.642Z,24.30
2022-10-28T18:30:54.625Z,24.20
2022-10-28T18:33:22.551Z,24.20
2022-10-28T18:35:50.343Z,24.10
2022-10-28T18:38:18.198Z,24.10
2022-10-28T18:40:50.284Z,24.10
2022-10-28T18:43:18.066Z,24.10
2022-10-28T18:45:45.831Z,24.10
2022-10-28T18:48:13.610Z,24.00
2022-10-28T18:50:43.546Z,24.10
2022-10-28T18:53:14.983Z,24.10
2022-10-28T18:55:42.871Z,24.00
2022-10-28T18:58:14.306Z,24.10
2022-10-28T19:00:42.574Z,24.10
2022-10-28T19:03:19.292Z,24.00
2022-10-28T19:05:47.226Z,23.90
2022-10-28T19:08:15.284Z,23.80
2022-10-28T19:10:43.321Z,23.70
2022-10-28T19:13:12.458Z,23.70
2022-10-28T19:15:47.073Z,23.90
2022-10-28T19:18:19.326Z,24.00
2022-10-28T19:20:47.523Z,24.00
2022-10-28T19:23:17.339Z,24.10
2022-10-28T19:25:53.986Z,24.00
2022-10-28T19:28:23.689Z,24.10
2022-10-28T19:30:51.691Z,23.90
2022-10-28T19:33:19.479Z,23.80
2022-10-28T19:35:47.274Z,23.90
2022-10-28T19:38:15.131Z,24.00
2022-10-28T19:40:42.942Z,23.90
2022-10-28T19:43:10.709Z,23.90
2022-10-28T19:45:39.842Z,23.90
2022-10-28T19:48:07.862Z,23.80
2022-10-28T19:50:35.640Z,23.80
2022-10-28T19:53:03.414Z,23.90
2022-10-28T19:55:31.214Z,23.90
2022-10-28T19:57:59.370Z,23.80
2022-10-28T20:00:27.318Z,23.80
2022-10-28T20:02:56.437Z,23.70
2022-10-28T20:05:24.284Z,23.50
2022-10-28T20:07:53.775Z,23.20
2022-10-28T20:10:21.829Z,23.20
2022-10-28T20:12:49.664Z,23.20
2022-10-28T20:15:17.614Z,23.20
2022-10-28T20:17:45.430Z,23.20
2022-10-28T20:20:15.054Z,23.40
2022-10-28T20:22:42.845Z,23.30
2022-10-28T20:25:11.035Z,23.50
2022-10-28T20:27:38.860Z,23.60
2022-10-28T20:30:08.130Z,23.50
2022-10-28T20:32:36.319Z,23.40
2022-10-28T20:35:04.149Z,23.40
2022-10-28T20:37:33.292Z,23.40
2022-10-28T20:40:06.330Z,23.40
2022-10-28T20:42:35.903Z,23.30
2022-10-28T20:45:04.138Z,23.10
2022-10-28T20:47:32.174Z,23.00
2022-10-28T20:50:02.917Z,23.00
2022-10-28T20:52:31.351Z,23.10
2022-10-28T20:55:00.554Z,23.30
2022-10-28T20:57:28.417Z,23.30
2022-10-28T20:59:56.377Z,23.10
2022-10-28T21:02:24.295Z,22.90
2022-10-28T21:04:52.303Z,22.90
2022-10-28T21:07:22.714Z,22.70
2022-10-28T21:09:53.390Z,22.80
2022-10-28T21:12:22.956Z,22.90
2022-10-28T21:14:51.210Z,22.60
2022-10-28T21:17:19.021Z,22.40
2022-10-28T21:19:46.860Z,22.40
2022-10-28T21:22:14.729Z,22.50
2022-10-28T21:24:42.534Z,22.50
2022-10-28T21:27:10.455Z,22.50
2022-10-28T21:29:39.852Z,22.60
2022-10-28T21:32:07.989Z,22.50
2022-10-28T21:34:35.747Z,22.50
2022-10-28T21:37:03.549Z,22.50
2022-10-28T21:39:31.385Z,22.40
2022-10-28T21:41:59.740Z,22.30
2022-10-28T21:44:27.554Z,22.30
2022-10-28T21:46:57.286Z,22.20
2022-10-28T21:49:25.169Z,22.30
2022-10-28T21:51:53.089Z,22.40
2022-10-28T21:54:21.091Z,22.40
2022-10-28T21:56:50.803Z,22.50
2022-10-28T21:59:21.739Z,22.60
2022-10-28T22:01:50.337Z,22.60
2022-10-28T22:04:22.172Z,22.60
2022-10-28T22:06:50.147Z,22.40
2022-10-28T22:09:18.679Z,22.30
2022-10-28T22:11:46.730Z,22.30
2022-10-28T22:14:14.561Z,22.10
2022-10-28T22:16:42.788Z,22.00
2022-10-28T22:19:17.471Z,21.90
2022-10-28T22:21:47.630Z,21.90
2022-10-28T22:24:15.764Z,22.10
2022-10-28T22:26:43.726Z,22.10
2022-10-28T22:29:11.785Z,22.10
2022-10-28T22:31:39.570Z,22.00
2022-10-28T22:34:07.462Z,22.00
2022-10-28T22:36:35.366Z,21.90
2022-10-28T22:39:04.706Z,21.90
2022-10-28T22:41:33.029Z,22.10
2022-10-28T22:44:02.221Z,22.10
2022-10-28T22:46:36.434Z,22.30
2022-10-28T22:49:05.108Z,22.40
2022-10-28T22:51:33.303Z,22.30
2022-10-28T22:54:01.171Z,22.20
2022-10-28T22:56:30.452Z,22.20
2022-10-28T22:59:00.044Z,22.20
2022-10-28T23:01:29.377Z,22.20
2022-10-28T23:03:57.498Z,22.20
2022-10-28T23:06:26.748Z,22.20
2022-10-28T23:08:54.727Z,22.20
2022-10-28T23:11:23.616Z,22.10
2022-10-28T23:13:53.682Z,22.10
2022-10-28T23:16:22.259Z,22.10
2022-10-28T23:18:50.061Z,22.00
2022-10-28T23:21:20.010Z,22.00
2022-10-28T23:23:51.291Z,22.00
2022-10-28T23:26:21.926Z,22.00
2022-10-28T23:28:53.918Z,22.00
2022-10-28T23:31:22.796Z,21.90
2022-10-28T23:33:50.935Z,21.80
2022-10-28T23:36:18.775Z,21.90
2022-10-28T23:38:46.621Z,21.80
2022-10-28T23:41:18.641Z,21.70
2022-10-28T23:43:48.622Z,21.60
2022-10-28T23:46:17.947Z,21.40
2022-10-28T23:48:45.733Z,21.40
2022-10-28T23:51:13.983Z,21.20
2022-10-28T23:53:41.810Z,21.30
2022-10-28T23:56:09.786Z,21.30
2022-10-28T23:58:37.611Z,21.30
